地図

経路データ

SID SEASON NUMBER BASIN SUBBASIN NAME ISO_TIME NATURE LAT LON WMO_WIND WMO_PRES WMO_AGENCY TRACK_TYPE DIST2LAND LANDFALL IFLAG USA_AGENCY USA_ATCF_ID USA_LAT USA_LON USA_RECORD USA_STATUS USA_WIND USA_PRES USA_SSHS USA_R34_NE USA_R34_SE USA_R34_SW USA_R34_NW USA_R50_NE USA_R50_SE USA_R50_SW USA_R50_NW USA_R64_NE USA_R64_SE USA_R64_SW USA_R64_NW USA_POCI USA_ROCI USA_RMW USA_EYE TOKYO_LAT TOKYO_LON TOKYO_GRADE TOKYO_WIND TOKYO_PRES TOKYO_R50_DIR TOKYO_R50_LONG TOKYO_R50_SHORT TOKYO_R30_DIR TOKYO_R30_LONG TOKYO_R30_SHORT TOKYO_LAND CMA_LAT CMA_LON CMA_CAT CMA_WIND CMA_PRES HKO_LAT HKO_LON HKO_CAT HKO_WIND HKO_PRES NEWDELHI_LAT NEWDELHI_LON NEWDELHI_GRADE NEWDELHI_WIND NEWDELHI_PRES NEWDELHI_CI NEWDELHI_DP NEWDELHI_POCI REUNION_LAT REUNION_LON REUNION_TYPE REUNION_WIND REUNION_PRES REUNION_TNUM REUNION_CI REUNION_RMW REUNION_R34_NE REUNION_R34_SE REUNION_R34_SW REUNION_R34_NW REUNION_R50_NE REUNION_R50_SE REUNION_R50_SW REUNION_R50_NW REUNION_R64_NE REUNION_R64_SE REUNION_R64_SW REUNION_R64_NW BOM_LAT BOM_LON BOM_TYPE BOM_WIND BOM_PRES BOM_TNUM BOM_CI BOM_RMW BOM_R34_NE BOM_R34_SE BOM_R34_SW BOM_R34_NW BOM_R50_NE BOM_R50_SE BOM_R50_SW BOM_R50_NW BOM_R64_NE BOM_R64_SE BOM_R64_SW BOM_R64_NW BOM_ROCI BOM_POCI BOM_EYE BOM_POS_METHOD BOM_PRES_METHOD NADI_LAT NADI_LON NADI_CAT NADI_WIND NADI_PRES WELLINGTON_LAT WELLINGTON_LON WELLINGTON_WIND WELLINGTON_PRES DS824_LAT DS824_LON DS824_STAGE DS824_WIND DS824_PRES TD9636_LAT TD9636_LON TD9636_STAGE TD9636_WIND TD9636_PRES TD9635_LAT TD9635_LON TD9635_WIND TD9635_PRES TD9635_ROCI NEUMANN_LAT NEUMANN_LON NEUMANN_CLASS NEUMANN_WIND NEUMANN_PRES MLC_LAT MLC_LON MLC_CLASS MLC_WIND MLC_PRES USA_GUST BOM_GUST BOM_GUST_PER REUNION_GUST REUNION_GUST_PER USA_SEAHGT USA_SEARAD_NE USA_SEARAD_SE USA_SEARAD_SW USA_SEARAD_NW STORM_SPEED STORM_DIR
1988230N18254 1988 57 EP MM JOHN 1988-08-16 18:00:00 TS 17.5000 -105.800 25 1012 hurdat_epa main 217 213 O_________O___ hurdat_epa EP101988 17.5000 -105.800 TD 25 1012 -1 17.5000 -105.800 1 25 5 304
1988230N18254 1988 57 EP MM JOHN 1988-08-16 21:00:00 TS 17.6523 -106.039 main 210 210 P_________P___ EP101988 17.6550 -106.037 TD 27 1011 -1 17.6441 -106.044 1 27 6 302
1988230N18254 1988 57 EP MM JOHN 1988-08-17 00:00:00 TS 17.8000 -106.300 30 1010 hurdat_epa main 222 222 O_________O___ hurdat_epa EP101988 17.8000 -106.300 TD 30 1010 -1 17.8000 -106.300 1 30 6 299
1988230N18254 1988 57 EP MM JOHN 1988-08-17 03:00:00 TS 17.9455 -106.594 main 237 230 P_________P___ EP101988 17.9350 -106.600 TD 30 1009 -1 17.9770 -106.575 1 30 6 300
1988230N18254 1988 57 EP MM JOHN 1988-08-17 06:00:00 TS 18.1182 -106.890 30 1009 hurdat_epa main 245 237 O_________P___ hurdat_epa EP101988 18.1000 -106.900 TD 30 1009 -1 18.1728 -106.860 1 30 7 307
1988230N18254 1988 57 EP MM JOHN 1988-08-17 09:00:00 TS 18.3468 -107.159 main 253 247 P_________P___ EP101988 18.3350 -107.165 TD 30 1008 -1 18.3822 -107.140 1 30 7 315
1988230N18254 1988 57 EP MM JOHN 1988-08-17 12:00:00 TS 18.6000 -107.400 30 1007 hurdat_epa main 252 246 O_________O___ hurdat_epa EP101988 18.6000 -107.400 TD 30 1007 -1 18.6000 -107.400 1 30 7 319
1988230N18254 1988 57 EP MM JOHN 1988-08-17 15:00:00 TS 18.8444 -107.609 main 257 252 P_________P___ EP101988 18.8575 -107.608 TD 32 1006 -1 18.8054 -107.614 1 31 6 322
1988230N18254 1988 57 EP MM JOHN 1988-08-17 18:00:00 TS 19.0799 -107.802 35 1006 hurdat_epa main 261 261 O_________P___ hurdat_epa EP101988 19.1000 -107.800 TS 35 1006 0 19.0197 -107.808 1 32 6 320
1988230N18254 1988 57 EP MM JOHN 1988-08-17 21:00:00 TS 19.2816 -107.994 main 270 270 P_________P___ EP101988 19.2925 -107.993 TS 35 1005 0 19.2491 -107.998 1 33 6 318
1988230N18254 1988 57 EP MM JOHN 1988-08-18 00:00:00 TS 19.5000 -108.200 35 1005 hurdat_epa main 280 280 O_________O___ hurdat_epa EP101988 19.5000 -108.200 TS 35 1005 0 19.5000 -108.200 2 35 7 320
1988230N18254 1988 57 EP MM JOHN 1988-08-18 03:00:00 TS 19.7854 -108.440 main 289 289 P_________P___ EP101988 19.7850 -108.442 TS 35 1004 0 19.7865 -108.432 2 33 8 322
1988230N18254 1988 57 EP MM JOHN 1988-08-18 06:00:00 TS 20.0981 -108.694 35 1004 hurdat_epa main 314 294 O_________P___ hurdat_epa EP101988 20.1000 -108.700 TS 35 1004 0 20.0924 -108.677 2 32 8 322
1988230N18254 1988 57 EP MM JOHN 1988-08-18 09:00:00 TS 20.3893 -108.946 main 294 253 P_________P___ EP101988 20.3850 -108.950 TS 32 1005 -1 20.4021 -108.935 2 31 8 322
1988230N18254 1988 57 EP MM JOHN 1988-08-18 12:00:00 TS 20.7000 -109.200 30 1006 hurdat_epa main 253 205 O_________O___ hurdat_epa EP101988 20.7000 -109.200 TD 30 1006 -1 20.7000 -109.200 1 30 9 326
1988230N18254 1988 57 EP MM JOHN 1988-08-18 15:00:00 TS 21.1018 -109.456 main 203 168 P_________P___ EP101988 21.1299 -109.442 TD 30 1006 -1 21.0174 -109.496 1 30 9 327
1988230N18254 1988 57 EP MM JOHN 1988-08-18 18:00:00 TS 21.4532 -109.724 30 1007 hurdat_epa main 156 145 O_________P___ hurdat_epa EP101988 21.5000 -109.700 TD 30 1007 -1 21.3128 -109.794 1 30 8 315
1988230N18254 1988 57 EP MM JOHN 1988-08-18 21:00:00 TS 21.6442 -110.029 main 145 134 P_________P___ EP101988 21.6751 -110.015 TD 30 1007 -1 21.5518 -110.071 1 30 6 295
1988230N18254 1988 57 EP MM JOHN 1988-08-19 00:00:00 TS 21.7000 -110.300 30 1008 hurdat_epa main 137 137 O_________O___ hurdat_epa EP101988 21.7000 -110.300 TD 30 1008 -1 21.7000 -110.300 1 30 4 270
1988230N18254 1988 57 EP MM JOHN 1988-08-19 03:00:00 TS 21.6464 -110.483 main 154 154 P_________P___ EP101988 21.6224 -110.488 TD 30 1008 -1 21.7182 -110.467 1 28 3 239
1988230N18254 1988 57 EP MM JOHN 1988-08-19 06:00:00 TS 21.5368 -110.596 30 1009 hurdat_epa main 168 168 O_________P___ hurdat_epa EP101988 21.5000 -110.600 TD 30 1009 -1 21.6472 -110.583 1 27 3 223
1988230N18254 1988 57 EP MM JOHN 1988-08-19 09:00:00 TS 21.4638 -110.669 main 172 172 P_________P___ EP101988 21.4425 -110.672 TD 27 1010 -1 21.5277 -110.658 1 26 2 215
1988230N18254 1988 57 EP MM JOHN 1988-08-19 12:00:00 TS 21.4000 -110.700 25 1011 hurdat_epa main 182 182 O_________O___ hurdat_epa EP101988 21.4000 -110.700 TD 25 1011 -1 21.4000 -110.700 1 25 1 199
1988230N18254 1988 57 EP MM JOHN 1988-08-19 15:00:00 TS 21.3453 -110.719 main 192 192 P_________P___ EP101988 21.3575 -110.707 TD 25 1011 -1 21.3087 -110.753 1 25 1 0
1988230N18254 1988 57 EP MM JOHN 1988-08-19 18:00:00 TS 21.2800 -110.719 25 1012 hurdat_epa main 192 192 O_________P___ hurdat_epa EP101988 21.3000 -110.700 TD 25 1012 -1 21.2199 -110.775 1 25 2 0
1988230N18254 1988 57 EP MM JOHN 1988-08-19 21:00:00 TS 21.1865 -110.732 main 203 203 P_________P___ EP101988 21.2000 -110.723 TD 25 1011 -1 21.1461 -110.759 1 25 2 173
1988230N18254 1988 57 EP MM JOHN 1988-08-20 00:00:00 TS 21.1000 -110.700 25 1011 hurdat_epa main 213 210 O_________O___ hurdat_epa EP101988 21.1000 -110.700 TD 25 1011 -1 21.1000 -110.700 1 25 2 137
1988230N18254 1988 57 EP MM JOHN 1988-08-20 03:00:00 TS 21.0290 -110.570 main 221 216 P_________P___ EP101988 21.0200 -110.572 TD 27 1010 -1 21.0558 -110.565 1 26 3 107
1988230N18254 1988 57 EP MM JOHN 1988-08-20 06:00:00 TS 21.0113 -110.398 30 1009 hurdat_epa main 216 202 O_________P___ hurdat_epa EP101988 21.0000 -110.400 TD 30 1009 -1 21.0453 -110.393 1 27 3 85
1988230N18254 1988 57 EP MM JOHN 1988-08-20 09:00:00 TS 21.0574 -110.238 main 202 190 P_________P___ EP101988 21.0475 -110.243 TD 30 1009 -1 21.0871 -110.224 1 28 3 56
1988230N18254 1988 57 EP MM JOHN 1988-08-20 12:00:00 TS 21.2000 -110.100 30 1009 hurdat_epa main 190 167 O_________O___ hurdat_epa EP101988 21.2000 -110.100 TD 30 1009 -1 21.2000 -110.100 1 30 5 31
1988230N18254 1988 57 EP MM JOHN 1988-08-20 15:00:00 TS 21.4667 -109.973 main 156 122 P_________P___ EP101988 21.4775 -109.955 TD 27 1010 -1 21.4343 -110.028 1 27 6 15
1988230N18254 1988 57 EP MM JOHN 1988-08-20 18:00:00 TS 21.7832 -109.928 25 1011 hurdat_epa main 122 89 O_________P___ hurdat_epa EP101988 21.8000 -109.900 TD 25 1011 -1 21.7327 -110.011 1 25 6 356
1988230N18254 1988 57 EP MM JOHN 1988-08-20 21:00:00 TS 22.0643 -110.014 main 89 70 P_________P___ EP101988 22.0725 -109.997 TD 22 1012 -1 22.0397 -110.063 1 22 6 334
1988230N18254 1988 57 EP MM JOHN 1988-08-21 00:00:00 TS 22.3000 -110.200 20 1013 hurdat_epa main 70 60 O_________O___ hurdat_epa EP101988 22.3000 -110.200 TD 20 1013 -1 22.3000 -110.200 1 20 6 316
1988230N18254 1988 57 EP MM JOHN 1988-08-21 03:00:00 TS 22.4696 -110.438 main 60 60 P_________P___ EP101988 22.4676 -110.442 TD 20 1013 -1 22.4757 -110.425 1 20 6 303
1988230N18254 1988 57 EP MM JOHN 1988-08-21 06:00:00 TS 22.6000 -110.700 20 1014 hurdat_epa main 79 O_________O___ hurdat_epa EP101988 22.6000 -110.700 TD 20 1014 -1 22.6000 -110.700 1 20 6 298

IBTrACS Databaseについて

本データベースは、米国NOAAが公開する1842年以降の世界の熱帯低気圧のベストトラックデータアーカイブInternational Best Track Archive for Climate Stewardship (IBTrACS)を、ウェブで閲覧しやすい形式に変換したものです。

最終更新日:2021-10-21